Monday, October 22, 2018, 4:04 AM GMT
Back to Local

CYSC, Sherbrooke, Que.

Location: , , Canada Lat: 45.4
Local Time: 4:04 AM GMT ( 4:04 GMT) Lon: -71.883
Time Zone: GMT Elev: 557 ft

Show me the last for .
Show Coded

Time T Td Feel RH Dir Speed Gust Alt SLP Vis Weather Sky Remarks
2018-10-22 03:00 32 21 24 63 280° 10 - 29.97 30.00 9 FEW043 OVC065 None
2018-10-22 02:00 32 21 24 63 280° 9 - 29.95 29.99 9 FEW042 BKN060 None
2018-10-22 01:00 32 21 24 63 270° 10 - 29.94 29.98 9 FEW070 None
2018-10-22 00:00 34 23 26 64 270° 9 - 29.93 29.96 9 BKN050 OVC065 None
2018-10-21 23:02 34 23 22 64 280° 13 22 29.91 29.95 9 FEW029 SCT044 OVC065 None
2018-10-21 23:00 34 23 22 64 280° 15 23 29.91 29.95 9 -SN FEW029 SCT044 OVC065 None
2018-10-21 22:52 34 23 21 64 280° 18 24 29.91 29.95 9 -SN FEW027 SCT037 BKN044 OVC065 None
2018-10-21 22:51 34 23 20 64 280° 17 29 29.91 29.95 9 -SN -UP FEW027 SCT037 BKN044 BKN065 None
2018-10-21 22:42 34 21 20 59 280° 20 29 29.91 29.94 9 -UP FEW037 BKN044 BKN050 BKN065 None
2018-10-21 22:36 34 21 21 59 280° 15 25 29.91 29.94 9 BKN043 BKN060 None
2018-10-21 22:32 34 21 21 59 290° 20 26 29.90 29.94 9 -UP FEW034 BKN045 BKN060 None
2018-10-21 22:29 34 21 21 59 290° 14 26 29.90 29.94 9 -RA -UP FEW034 BKN045 BKN065 None
2018-10-21 22:27 34 21 21 59 290° 15 26 29.90 29.94 9 -UP FEW034 BKN045 BKN055 BKN064 None
2018-10-21 22:23 36 21 23 55 310° 14 26 29.90 29.94 9 -RA FEW034 BKN045 OVC055 None
2018-10-21 22:22 36 21 25 55 300° 12 18 29.90 29.94 9 -RASN BKN045 OVC055 None
2018-10-21 22:19 34 21 22 59 290° 13 23 29.90 29.93 9 -SN BKN045 OVC055 None
2018-10-21 22:13 36 21 24 55 290° 14 23 29.90 29.93 9 -SN -UP BKN045 OVC055 None
2018-10-21 22:07 36 21 25 55 300° 13 21 29.89 29.93 9 -UP BKN046 OVC055 None
2018-10-21 22:00 36 21 24 55 290° 14 22 29.89 29.92 9 OVC055 None
2018-10-21 21:00 36 18 23 47 300° 15 28 29.86 29.89 9 OVC060 None
2018-10-21 20:00 36 18 23 47 280° 18 25 29.85 29.88 9 OVC050 None
2018-10-21 19:00 36 19 23 51 280° 23 29 29.83 29.87 9 OVC050 None
2018-10-21 18:27 36 23 25 59 270° 14 21 29.83 29.86 9 SCT039 OVC050 None
2018-10-21 18:01 34 23 22 64 280° 14 22 29.83 29.86 9 -RA OVC037 None
2018-10-21 18:00 34 23 22 64 280° 14 22 29.83 29.86 9 OVC037 None
2018-10-21 17:53 34 23 21 64 270° 16 25 29.83 29.86 9 BKN037 OVC045 None
2018-10-21 17:45 34 21 22 59 290° 21 - 29.83 29.86 9 -RA OVC040 None
2018-10-21 17:42 34 21 21 59 290° 15 28 29.83 29.86 9 -RASN OVC040 None
2018-10-21 17:39 34 21 21 59 290° 17 28 29.83 29.86 9 -RASN -UP OVC040 None
2018-10-21 17:36 34 21 21 59 290° 16 28 29.83 29.86 9 -SN -UP OVC040 None
2018-10-21 17:31 34 21 21 59 290° 17 25 29.83 29.86 9 -UP OVC042 None
2018-10-21 17:28 34 21 23 59 280° 18 - 29.82 29.85 9 OVC042 None
2018-10-21 17:24 34 21 22 59 290° 15 22 29.82 29.85 9 -SN OVC042 None
2018-10-21 17:16 34 23 21 64 280° 16 24 29.82 29.85 9 -RASN OVC040 None
2018-10-21 17:11 34 21 22 59 280° 21 - 29.82 29.85 9 -RA BKN040 OVC050 None
2018-10-21 17:00 34 23 21 64 270° 16 25 29.82 29.85 9 BKN038 OVC048 None
2018-10-21 16:57 36 23 23 59 280° 20 25 29.82 29.85 9 BKN038 OVC050 None
2018-10-21 16:50 36 23 24 59 280° 15 24 29.82 29.85 9 -SN BKN038 OVC050 None
2018-10-21 16:44 34 23 21 64 280° 13 24 29.82 29.85 9 -RASN OVC040 None
2018-10-21 16:37 34 23 22 64 280° 17 23 29.81 29.85 9 -RA OVC040 None
2018-10-21 16:32 36 23 23 59 280° 18 25 29.81 29.85 9 OVC040 None
2018-10-21 16:22 34 21 20 59 290° 18 29 29.81 29.84 9 -RA OVC042 None
2018-10-21 16:19 34 21 22 59 300° 20 - 29.81 29.85 9 OVC042 None
2018-10-21 16:00 36 21 23 55 280° 17 26 29.81 29.84 9 -RA OVC042 None
2018-10-21 15:59 36 21 23 55 280° 20 26 29.81 29.84 9 -RA OVC042 None
2018-10-21 15:00 36 23 25 59 280° 13 20 29.81 29.83 9 OVC040 None
2018-10-21 14:00 34 23 21 64 290° 16 24 29.80 29.83 9 OVC040 None
2018-10-21 13:00 34 25 22 69 290° 14 20 29.78 29.81 9 OVC040 None
2018-10-21 12:00 32 27 25 80 280° 8 - 29.76 29.79 9 OVC043 None
2018-10-21 11:00 30 27 23 86 280° 8 - 29.73 29.76 9 SCT035 OVC043 None
2018-10-21 10:00 30 27 24 86 230° 6 - 29.71 29.74 9 BKN039 None
2018-10-21 09:00 30 27 23 86 270° 7 - 29.69 29.71 9 CLR None
2018-10-21 08:00 32 28 24 86 270° 9 - 29.66 29.68 9 CLR None
2018-10-21 07:00 34 28 26 80 290° 10 - 29.64 29.66 9 CLR None
2018-10-21 06:00 36 30 25 80 300° 10 17 29.63 29.65 9 OVC075 None
2018-10-21 05:00 37 30 - 74 270° 2 - 29.62 29.64 9 OVC075 None

Support USWX by starting your Amazon purchase here.